Time;durP1;ratioP1;P1;durP2;ratioP2;P2;SDS_P1;SDS_P2;PMS_P1;PMS_P2;Temp;Humidity;BMP_temperature;BMP_pressure;BME280_temperature;BME280_humidity;BME280_pressure;Samples;Min_cycle;Max_cycle;Signal;HPM_P1;HPM_P2
2023/10/02 00:00:40;;;;;;;;;;;;;;;20.16;59.58;100255.28;10330566;28;981;-69
2023/10/02 00:05:50;;;;;;;;;;;;;;;20.14;59.39;100244.75;10330390;28;783;-69
2023/10/02 00:10:46;;;;;;;;;;;;;;;20.13;59.48;100256.28;10330993;28;834;-69
2023/10/02 00:15:42;;;;;;;;;;;;;;;20.13;59.34;100263.34;10330588;28;1959;-69
2023/10/02 00:20:38;;;;;;;;;;;;;;;20.13;59.47;100268.66;10329870;28;826;-69
2023/10/02 00:25:51;;;;;;;;;;;;;;;20.11;59.43;100271.34;10329697;28;961;-69
2023/10/02 00:30:48;;;;;;;;;;;;;;;20.10;59.62;100263.50;10329781;28;1065;-69
2023/10/02 00:35:50;;;;;;;;;;;;;;;20.09;59.50;100267.91;10329233;28;1977;-69
2023/10/02 00:40:46;;;;;;;;;;;;;;;20.08;59.59;100270.63;10329698;28;854;-69
2023/10/02 00:45:42;;;;;;;;;;;;;;;20.06;59.56;100268.06;10328907;28;1055;-69
2023/10/02 00:50:49;;;;;;;;;;;;;;;20.05;59.65;100270.78;10328806;28;937;-70
2023/10/02 00:55:45;;;;;;;;;;;;;;;20.04;59.43;100275.22;10328691;28;1894;-70
2023/10/02 01:00:47;;;;;;;;;;;;;;;20.04;59.58;100271.69;10328848;28;806;-70
2023/10/02 01:05:50;;;;;;;;;;;;;;;20.03;59.49;100267.34;10326744;28;1184;-69
2023/10/02 01:10:46;;;;;;;;;;;;;;;20.02;59.62;100257.69;10327233;28;1216;-69
2023/10/02 01:15:42;;;;;;;;;;;;;;;20.00;59.63;100267.47;10328215;28;1905;-70
2023/10/02 01:20:40;;;;;;;;;;;;;;;20.01;59.53;100266.53;10327414;28;976;-69
2023/10/02 01:25:36;;;;;;;;;;;;;;;20.00;59.58;100268.34;10327198;28;891;-69
2023/10/02 01:30:32;;;;;;;;;;;;;;;19.98;59.62;100253.44;10326701;28;1230;-69
2023/10/02 01:35:29;;;;;;;;;;;;;;;19.99;59.52;100257.81;10327632;28;1909;-69
2023/10/02 01:40:33;;;;;;;;;;;;;;;19.98;59.54;100250.81;10327272;28;857;-70
2023/10/02 01:45:34;;;;;;;;;;;;;;;19.97;59.67;100257.03;10327061;28;897;-69
2023/10/02 01:50:30;;;;;;;;;;;;;;;19.96;59.65;100253.50;10326173;28;1226;-69
2023/10/02 01:55:29;;;;;;;;;;;;;;;19.96;59.58;100252.66;10326163;28;1949;-69
2023/10/02 02:00:25;;;;;;;;;;;;;;;19.95;59.72;100240.38;10326101;28;818;-69
2023/10/02 02:05:20;;;;;;;;;;;;;;;19.95;59.64;100245.66;10325928;28;754;-70
2023/10/02 02:10:16;;;;;;;;;;;;;;;19.94;59.89;100244.81;10327042;28;887;-69
2023/10/02 02:15:13;;;;;;;;;;;;;;;19.94;59.83;100242.16;10325546;28;1961;-69
2023/10/02 02:20:43;;;;;;;;;;;;;;;19.93;59.62;100241.28;10326019;28;835;-69
2023/10/02 02:25:28;;;;;;;;;;;;;;;19.92;59.64;100238.72;10325458;28;1790;-69
2023/10/02 02:30:24;;;;;;;;;;;;;;;19.91;59.80;100235.22;10325767;28;1021;-69
2023/10/02 02:35:21;;;;;;;;;;;;;;;19.91;59.72;100231.69;10325865;28;1975;-69
2023/10/02 02:40:22;;;;;;;;;;;;;;;19.90;59.82;100236.13;10325280;28;871;-69
2023/10/02 02:45:31;;;;;;;;;;;;;;;19.90;59.85;100232.63;10325699;28;849;-69
2023/10/02 02:50:32;;;;;;;;;;;;;;;19.89;59.75;100234.41;10325627;28;886;-69
2023/10/02 02:55:28;;;;;;;;;;;;;;;19.90;59.74;100229.97;10325390;28;1947;-69
2023/10/02 03:00:29;;;;;;;;;;;;;;;19.89;59.60;100228.28;10325389;28;884;-69
2023/10/02 03:05:38;;;;;;;;;;;;;;;19.88;59.77;100218.59;10324674;28;829;-70
2023/10/02 03:10:36;;;;;;;;;;;;;;;19.87;59.76;100219.53;10325285;28;870;-69
2023/10/02 03:15:48;;;;;;;;;;;;;;;19.87;59.77;100217.75;10324337;28;1902;-69
2023/10/02 03:20:44;;;;;;;;;;;;;;;19.85;59.74;100211.66;10325487;28;842;-69
2023/10/02 03:25:45;;;;;;;;;;;;;;;19.85;59.95;100210.81;10325126;28;841;-70
2023/10/02 03:30:43;;;;;;;;;;;;;;;19.84;59.73;100203.81;10327691;28;1089;-70
2023/10/02 03:35:39;;;;;;;;;;;;;;;19.83;59.72;100212.66;10331505;28;1913;-69
2023/10/02 03:40:35;;;;;;;;;;;;;;;19.82;59.85;100217.09;10331403;28;849;-69
2023/10/02 03:45:38;;;;;;;;;;;;;;;19.82;59.77;100211.78;10331810;28;853;-69
2023/10/02 03:50:37;;;;;;;;;;;;;;;19.81;59.74;100212.72;10331038;28;947;-69
2023/10/02 03:55:33;;;;;;;;;;;;;;;19.81;59.73;100203.94;10331026;28;1894;-69
2023/10/02 04:00:42;;;;;;;;;;;;;;;19.81;59.73;100207.44;10330666;28;844;-69
2023/10/02 04:05:44;;;;;;;;;;;;;;;19.80;59.83;100205.72;10330550;28;1610;-69
2023/10/02 04:10:51;;;;;;;;;;;;;;;19.78;59.79;100199.66;10330545;28;949;-69
2023/10/02 04:15:47;;;;;;;;;;;;;;;19.80;59.82;100192.47;10330274;28;1901;-69
2023/10/02 04:20:51;;;;;;;;;;;;;;;19.79;59.90;100182.00;10330304;28;888;-69
2023/10/02 04:25:47;;;;;;;;;;;;;;;19.76;59.81;100176.84;10330377;28;950;-69
2023/10/02 04:30:45;;;;;;;;;;;;;;;19.80;59.76;100173.97;10329269;28;1377;-69
2023/10/02 04:35:44;;;;;;;;;;;;;;;19.86;59.66;100179.00;10329569;28;1922;-69
2023/10/02 04:40:52;;;;;;;;;;;;;;;19.89;59.53;100175.34;10329075;28;809;-69
2023/10/02 04:45:48;;;;;;;;;;;;;;;19.91;59.66;100173.47;10328893;28;961;-69
2023/10/02 04:50:47;;;;;;;;;;;;;;;19.91;59.47;100173.47;10328713;28;866;-69
2023/10/02 04:55:43;;;;;;;;;;;;;;;19.91;59.53;100171.72;10328501;28;1906;-69
2023/10/02 05:00:39;;;;;;;;;;;;;;;19.93;59.62;100169.84;10328328;28;857;-69
2023/10/02 05:05:36;;;;;;;;;;;;;;;19.95;59.50;100163.63;10329044;28;875;-70
2023/10/02 05:10:35;;;;;;;;;;;;;;;19.96;59.55;100166.19;10327877;28;894;-70
2023/10/02 05:15:31;;;;;;;;;;;;;;;19.98;59.37;100164.34;10328189;28;1898;-69
2023/10/02 05:20:27;;;;;;;;;;;;;;;19.98;59.39;100168.78;10328362;28;782;-69
2023/10/02 05:25:25;;;;;;;;;;;;;;;19.98;59.35;100164.34;10327303;28;893;-69
2023/10/02 05:30:21;;;;;;;;;;;;;;;20.00;59.29;100169.56;10326825;28;1165;-69
2023/10/02 05:35:18;;;;;;;;;;;;;;;20.01;59.33;100173.94;10326910;28;1983;-69
2023/10/02 05:45:17;;;;;;;;;;;;;;;20.03;59.24;100188.81;10326567;28;833;-69
2023/10/02 05:50:15;;;;;;;;;;;;;;;20.03;59.24;100194.09;10326387;28;1037;-69
2023/10/02 05:55:16;;;;;;;;;;;;;;;20.03;59.34;100193.25;10325756;28;859;-70
2023/10/02 06:00:16;;;;;;;;;;;;;;;20.02;59.22;100199.47;10326320;28;857;-69
2023/10/02 06:05:12;;;;;;;;;;;;;;;20.04;59.26;100195.84;10325362;28;1351;-69
2023/10/02 06:10:08;;;;;;;;;;;;;;;20.06;59.29;100198.41;10325918;28;833;-70
2023/10/02 06:15:22;;;;;;;;;;;;;;;20.09;59.11;100211.47;10326180;28;878;-69
2023/10/02 06:20:17;;;;;;;;;;;;;;;20.08;59.15;100207.97;10325876;28;801;-70
2023/10/02 06:25:17;;;;;;;;;;;;;;;20.09;59.25;100214.97;10325569;28;813;-70
2023/10/02 06:30:16;;;;;;;;;;;;;;;20.12;59.28;100224.56;10325166;28;1407;-69
2023/10/02 06:35:12;;;;;;;;;;;;;;;20.12;59.13;100221.91;10325278;28;960;-69
2023/10/02 06:40:14;;;;;;;;;;;;;;;20.12;59.20;100229.88;10325257;28;892;-73
2023/10/02 06:45:15;;;;;;;;;;;;;;;20.14;59.24;100222.72;10325192;28;870;-69
2023/10/02 06:55:26;;;;;;;;;;;;;;;20.18;58.99;100212.88;10325230;28;1894;-70
2023/10/02 07:00:22;;;;;;;;;;;;;;;20.16;59.30;100210.28;10324559;28;1080;-70
2023/10/02 07:05:18;;;;;;;;;;;;;;;20.16;59.18;100212.94;10327343;28;922;-70
2023/10/02 07:10:14;;;;;;;;;;;;;;;20.16;59.36;100215.56;10332707;28;1007;-69
2023/10/02 07:15:10;;;;;;;;;;;;;;;20.14;59.38;100212.13;10331830;28;955;-74
2023/10/02 07:20:10;;;;;;;;;;;;;;;20.15;59.35;100211.22;10331518;28;1897;-71
2023/10/02 07:25:08;;;;;;;;;;;;;;;20.16;59.34;100210.28;10332110;28;767;-70
2023/10/02 07:30:04;;;;;;;;;;;;;;;20.14;59.46;100201.53;10331841;28;833;-70
2023/10/02 07:35:09;;;;;;;;;;;;;;;20.13;59.59;100205.13;10332489;28;1310;-70
2023/10/02 07:40:06;;;;;;;;;;;;;;;20.12;59.47;100208.69;10332319;28;1906;-70
2023/10/02 07:50:24;;;;;;;;;;;;;;;20.14;59.77;100201.53;10331251;28;620;-70
2023/10/02 07:55:23;;;;;;;;;;;;;;;20.14;59.60;100209.47;10330956;28;1901;-70
2023/10/02 08:00:38;;;;;;;;;;;;;;;20.14;59.80;100205.03;10331406;28;805;-70
2023/10/02 08:05:34;;;;;;;;;;;;;;;20.15;59.66;100203.28;10330642;28;903;-70
2023/10/02 08:10:49;;;;;;;;;;;;;;;20.18;59.71;100189.06;10328427;28;1046;-69
2023/10/02 08:15:45;;;;;;;;;;;;;;;20.20;59.71;100195.09;10329677;28;1901;-70
2023/10/02 08:20:40;;;;;;;;;;;;;;;20.19;59.59;100186.31;10330353;28;903;-69
2023/10/02 08:25:36;;;;;;;;;;;;;;;20.19;59.79;100188.09;10329656;28;959;-69
2023/10/02 08:30:35;;;;;;;;;;;;;;;20.20;59.66;100189.81;10329147;28;1168;-70
2023/10/02 08:35:31;;;;;;;;;;;;;;;20.19;59.73;100188.97;10329177;28;1922;-70
2023/10/02 08:40:27;;;;;;;;;;;;;;;20.23;59.58;100197.63;10329152;28;799;-70
2023/10/02 08:45:23;;;;;;;;;;;;;;;20.23;59.60;100190.56;10328732;28;859;-70
2023/10/02 08:50:18;;;;;;;;;;;;;;;20.23;59.68;100190.56;10328676;28;912;-70
2023/10/02 08:55:26;;;;;;;;;;;;;;;20.25;59.80;100185.16;10328373;28;995;-71
2023/10/02 09:00:24;;;;;;;;;;;;;;;20.24;59.66;100184.31;10328501;28;842;-70
2023/10/02 09:05:20;;;;;;;;;;;;;;;20.26;59.71;100177.16;10328530;28;795;-71
2023/10/02 09:10:25;;;;;;;;;;;;;;;20.27;59.56;100176.22;10327198;28;885;-66
2023/10/02 09:15:24;;;;;;;;;;;;;;;20.28;59.55;100174.47;10328091;28;1898;-70
2023/10/02 09:20:36;;;;;;;;;;;;;;;20.27;59.60;100178.00;10327339;28;882;-70
2023/10/02 09:25:37;;;;;;;;;;;;;;;20.26;59.70;100174.50;10327235;28;905;-70
2023/10/02 09:30:36;;;;;;;;;;;;;;;20.24;59.67;100171.06;10326607;28;1133;-69
2023/10/02 09:35:40;;;;;;;;;;;;;;;20.22;59.83;100166.78;10327625;28;1968;-69
2023/10/02 09:40:53;;;;;;;;;;;;;;;20.22;59.80;100165.00;10327182;28;779;-69
2023/10/02 09:45:49;;;;;;;;;;;;;;;20.21;59.85;100150.06;10326547;28;890;-69
2023/10/02 09:50:46;;;;;;;;;;;;;;;20.21;59.85;100139.47;10326215;28;723;-68
2023/10/02 09:55:42;;;;;;;;;;;;;;;20.22;59.84;100133.22;10326795;28;1984;-70
2023/10/02 10:00:40;;;;;;;;;;;;;;;20.21;59.86;100133.31;10325950;28;798;-69
2023/10/02 10:05:53;;;;;;;;;;;;;;;20.22;59.90;100135.03;10325843;28;969;-70
2023/10/02 10:10:49;;;;;;;;;;;;;;;20.21;59.82;100142.13;10325509;28;968;-69
2023/10/02 10:15:47;;;;;;;;;;;;;;;20.21;59.68;100138.63;10326370;28;1890;-69
2023/10/02 10:20:44;;;;;;;;;;;;;;;20.21;59.84;100135.97;10325365;28;881;-69
2023/10/02 10:25:40;;;;;;;;;;;;;;;20.21;59.65;100133.31;10325338;28;1600;-69
2023/10/02 10:35:34;;;;;;;;;;;;;;;20.20;59.78;100121.88;10325611;28;1909;-71
2023/10/02 10:40:53;;;;;;;;;;;;;;;20.21;59.80;100105.06;10333585;28;913;-69
2023/10/02 10:45:48;;;;;;;;;;;;;;;20.21;59.80;100102.41;10337303;28;1561;-69
2023/10/02 10:50:56;;;;;;;;;;;;;;;20.26;59.59;100094.25;10338963;28;854;-69
2023/10/02 10:55:55;;;;;;;;;;;;;;;20.28;59.45;100101.19;10338429;28;1894;-69
2023/10/02 11:00:51;;;;;;;;;;;;;;;20.27;59.55;100094.16;10338642;28;806;-69
2023/10/02 11:05:47;;;;;;;;;;;;;;;20.28;59.50;100092.41;10338941;28;829;-69
2023/10/02 11:10:42;;;;;;;;;;;;;;;20.28;59.58;100090.59;10338841;28;842;-70
2023/10/02 11:15:53;;;;;;;;;;;;;;;20.25;59.65;100098.69;10338711;28;1960;-69
2023/10/02 11:20:50;;;;;;;;;;;;;;;20.28;59.67;100110.94;10338559;28;809;-73
2023/10/02 11:25:46;;;;;;;;;;;;;;;20.27;59.53;100101.25;10338862;28;894;-73
2023/10/02 11:30:46;;;;;;;;;;;;;;;20.26;59.59;100094.25;10337666;28;1240;-73
2023/10/02 11:35:46;;;;;;;;;;;;;;;20.25;59.58;100090.75;10337710;28;1914;-73
2023/10/02 11:40:44;;;;;;;;;;;;;;;20.27;59.42;100094.16;10337732;28;943;-73
2023/10/02 11:45:40;;;;;;;;;;;;;;;20.26;59.63;100084.50;10337618;28;998;-73
2023/10/02 11:50:38;;;;;;;;;;;;;;;20.27;59.52;100078.28;10334537;28;1231;-73
2023/10/02 11:55:33;;;;;;;;;;;;;;;20.27;59.51;100070.34;10330218;28;1953;-72
2023/10/02 12:00:29;;;;;;;;;;;;;;;20.28;59.43;100063.28;10330640;28;845;-74
2023/10/02 12:05:26;;;;;;;;;;;;;;;20.29;59.55;100057.03;10330252;28;810;-73
2023/10/02 12:10:22;;;;;;;;;;;;;;;20.30;59.35;100056.09;10330268;28;882;-73
2023/10/02 12:15:19;;;;;;;;;;;;;;;20.33;59.38;100050.66;10330447;28;901;-73
2023/10/02 12:20:16;;;;;;;;;;;;;;;20.35;59.12;100049.63;10329767;28;1890;-73
2023/10/02 12:25:12;;;;;;;;;;;;;;;20.38;59.14;100050.44;10330195;28;854;-73
2023/10/02 12:30:11;;;;;;;;;;;;;;;20.42;59.07;100049.34;10329320;28;846;-73
2023/10/02 12:35:07;;;;;;;;;;;;;;;20.44;58.98;100043.06;10329726;28;1404;-73
2023/10/02 12:40:09;;;;;;;;;;;;;;;20.48;58.87;100035.81;10329223;28;1910;-73
2023/10/02 12:45:06;;;;;;;;;;;;;;;20.49;59.02;100040.19;10329327;28;855;-73
2023/10/02 12:50:07;;;;;;;;;;;;;;;20.54;58.75;100032.88;10329642;28;871;-82
2023/10/02 12:55:04;;;;;;;;;;;;;;;20.58;58.87;100016.75;10329282;28;932;-82
2023/10/02 13:00:00;;;;;;;;;;;;;;;20.62;58.81;100016.59;10328356;28;1894;-81
2023/10/02 13:04:59;;;;;;;;;;;;;;;20.68;58.53;100018.94;10327114;28;862;-82
2023/10/02 13:09:55;;;;;;;;;;;;;;;20.68;58.46;100008.34;10328195;28;944;-81
2023/10/02 13:14:50;;;;;;;;;;;;;;;20.76;58.51;99998.22;10328753;28;818;-80
2023/10/02 13:19:46;;;;;;;;;;;;;;;20.74;58.72;99995.63;10327556;28;1890;-82
2023/10/02 13:24:42;;;;;;;;;;;;;;;20.76;58.45;99988.47;10328013;28;914;-82
2023/10/02 13:29:38;;;;;;;;;;;;;;;20.86;58.44;99990.66;10327268;28;953;-82
2023/10/02 13:34:34;;;;;;;;;;;;;;;20.82;58.48;99986.44;10327450;28;1144;-82
2023/10/02 13:39:30;;;;;;;;;;;;;;;20.73;58.70;99977.19;10326781;28;1973;-82
2023/10/02 13:44:26;;;;;;;;;;;;;;;20.68;58.81;99990.66;10326781;28;810;-83
2023/10/02 13:49:23;;;;;;;;;;;;;;;20.65;58.93;99974.94;10327003;28;933;-82
2023/10/02 13:54:19;;;;;;;;;;;;;;;20.62;58.90;99974.22;10326432;28;891;-82
2023/10/02 13:59:15;;;;;;;;;;;;;;;20.58;59.07;99968.22;10326137;28;1898;-82
2023/10/02 14:04:11;;;;;;;;;;;;;;;20.56;59.03;99967.44;10323893;28;967;-83
2023/10/02 14:09:10;;;;;;;;;;;;;;;20.54;59.03;99962.25;10325661;28;759;-82
2023/10/02 14:14:06;;;;;;;;;;;;;;;20.52;59.23;99957.94;10325332;28;775;-82
2023/10/02 14:19:02;;;;;;;;;;;;;;;20.52;59.03;99952.63;10325865;28;1897;-82
2023/10/02 14:23:58;;;;;;;;;;;;;;;20.54;59.02;99949.00;10326068;28;838;-78
2023/10/02 14:28:55;;;;;;;;;;;;;;;20.57;58.86;99946.19;10325975;28;817;-81
2023/10/02 14:33:51;;;;;;;;;;;;;;;20.60;59.01;99949.63;10326089;28;1309;-83
2023/10/02 14:38:47;;;;;;;;;;;;;;;20.60;58.89;99934.59;10325659;28;1980;-83
2023/10/02 14:43:43;;;;;;;;;;;;;;;20.60;58.90;99939.03;10324936;28;871;-82
2023/10/02 14:48:40;;;;;;;;;;;;;;;20.60;58.83;99926.66;10325771;28;921;-82
2023/10/02 14:53:36;;;;;;;;;;;;;;;20.65;58.81;99907.88;10325147;28;923;-82
2023/10/02 14:58:32;;;;;;;;;;;;;;;20.64;58.84;99904.34;10325814;28;1894;-82
2023/10/02 15:03:28;;;;;;;;;;;;;;;20.63;58.77;99905.28;10324210;28;823;-82
2023/10/02 15:08:23;;;;;;;;;;;;;;;20.76;58.55;99905.50;10324430;28;853;-83
2023/10/02 15:13:19;;;;;;;;;;;;;;;20.97;58.03;99898.19;10324546;28;941;-83
2023/10/02 15:18:15;;;;;;;;;;;;;;;20.79;58.44;99892.94;10324168;28;1893;-82
2023/10/02 15:23:11;;;;;;;;;;;;;;;20.75;58.65;99891.41;10324254;28;874;-82
2023/10/02 15:28:07;;;;;;;;;;;;;;;20.71;58.76;99886.34;10329892;28;881;-82
2023/10/02 15:33:03;;;;;;;;;;;;;;;20.68;58.85;99884.72;10331901;28;1172;-83
2023/10/02 15:38:01;;;;;;;;;;;;;;;20.65;58.82;99878.75;10331290;28;1967;-82
2023/10/02 15:42:57;;;;;;;;;;;;;;;20.65;58.82;99869.00;10331339;28;802;-81
2023/10/02 15:47:55;;;;;;;;;;;;;;;20.65;58.94;99871.66;10331049;28;786;-81
2023/10/02 15:52:51;;;;;;;;;;;;;;;20.64;59.01;99875.22;10330885;28;1001;-82
2023/10/02 15:57:48;;;;;;;;;;;;;;;20.62;58.94;99866.50;10330628;28;1902;-82
2023/10/02 16:02:44;;;;;;;;;;;;;;;20.61;59.10;99867.44;10331142;28;1228;-77
2023/10/02 16:07:40;;;;;;;;;;;;;;;20.62;58.91;99858.56;10330643;28;858;-78
2023/10/02 16:12:38;;;;;;;;;;;;;;;20.60;58.99;99849.84;10330088;28;791;-77
2023/10/02 16:17:34;;;;;;;;;;;;;;;20.60;59.11;99859.59;10329459;28;1960;-77
2023/10/02 16:22:32;;;;;;;;;;;;;;;20.58;58.94;99849.91;10330423;28;831;-77
2023/10/02 16:27:28;;;;;;;;;;;;;;;20.59;58.94;99853.41;10330269;28;921;-77
2023/10/02 16:32:24;;;;;;;;;;;;;;;20.58;58.99;99843.78;10329165;28;1274;-77
2023/10/02 16:37:19;;;;;;;;;;;;;;;20.57;59.12;99837.63;10329670;28;1918;-81
2023/10/02 16:42:16;;;;;;;;;;;;;;;20.56;59.16;99833.25;10329323;28;822;-80
2023/10/02 16:47:11;;;;;;;;;;;;;;;20.56;59.09;99830.59;10328291;28;1076;-81
2023/10/02 16:52:08;;;;;;;;;;;;;;;20.56;59.12;99830.59;10329404;28;904;-76
2023/10/02 16:57:04;;;;;;;;;;;;;;;20.55;59.15;99826.25;10329259;28;1898;-81
2023/10/02 17:01:59;;;;;;;;;;;;;;;20.55;59.08;99814.81;10328510;28;796;-79
2023/10/02 17:06:55;;;;;;;;;;;;;;;20.54;59.14;99813.06;10328269;28;1000;-75
2023/10/02 17:11:51;;;;;;;;;;;;;;;20.53;59.15;99800.75;10328146;28;940;-76
2023/10/02 17:16:47;;;;;;;;;;;;;;;20.54;59.26;99805.13;10327846;28;1955;-76
2023/10/02 17:21:44;;;;;;;;;;;;;;;20.53;59.30;99804.25;10327737;28;834;-76
2023/10/02 17:26:41;;;;;;;;;;;;;;;20.52;59.11;99794.59;10327508;28;830;-75
2023/10/02 17:31:37;;;;;;;;;;;;;;;20.52;59.17;99794.59;10327292;28;1406;-75
2023/10/02 17:36:33;;;;;;;;;;;;;;;20.52;59.26;99789.31;10327228;28;1991;-76
2023/10/02 17:41:29;;;;;;;;;;;;;;;20.53;59.32;99787.50;10326882;28;825;-75
2023/10/02 17:46:25;;;;;;;;;;;;;;;20.53;59.15;99785.72;10326129;28;1070;-75
2023/10/02 17:51:21;;;;;;;;;;;;;;;20.52;59.15;99773.44;10326496;28;947;-75
2023/10/02 17:56:17;;;;;;;;;;;;;;;20.53;59.21;99766.34;10326328;28;2011;-76
2023/10/02 18:01:12;;;;;;;;;;;;;;;20.54;59.16;99765.41;10325811;28;909;-75
2023/10/02 18:06:08;;;;;;;;;;;;;;;20.54;59.21;99757.47;10326113;28;825;-76
2023/10/02 18:11:04;;;;;;;;;;;;;;;20.53;59.16;99759.22;10326687;28;882;-75
2023/10/02 18:16:02;;;;;;;;;;;;;;;20.53;59.15;99743.34;10308040;28;1960;-75
2023/10/02 18:20:58;;;;;;;;;;;;;;;20.54;59.15;99742.47;10325717;28;830;-76
2023/10/02 18:25:54;;;;;;;;;;;;;;;20.54;59.35;99738.94;10326202;28;874;-71
2023/10/02 18:30:50;;;;;;;;;;;;;;;20.50;59.73;99726.78;10325285;28;1453;-71
2023/10/02 18:35:46;;;;;;;;;;;;;;;20.50;59.78;99722.34;10325859;28;1977;-71
2023/10/02 18:40:46;;;;;;;;;;;;;;;20.49;59.80;99728.59;10326569;28;845;-71
2023/10/02 18:45:42;;;;;;;;;;;;;;;20.50;59.90;99732.09;10325149;28;949;-71
2023/10/02 18:50:38;;;;;;;;;;;;;;;20.48;60.03;99723.34;10325136;28;845;-71
2023/10/02 18:55:34;;;;;;;;;;;;;;;20.49;59.83;99720.63;10325073;28;853;-71
2023/10/02 19:00:29;;;;;;;;;;;;;;;20.48;59.84;99716.25;10327933;28;1959;-71
2023/10/02 19:05:25;;;;;;;;;;;;;;;20.50;59.87;99718.84;10332496;28;1011;-70
2023/10/02 19:10:21;;;;;;;;;;;;;;;20.49;59.82;99714.50;10332903;28;813;-71
2023/10/02 19:15:17;;;;;;;;;;;;;;;20.49;59.89;99710.06;10332612;28;794;-71
2023/10/02 19:20:13;;;;;;;;;;;;;;;20.49;60.00;99709.19;10332444;28;1951;-70
2023/10/02 19:25:09;;;;;;;;;;;;;;;20.49;59.93;99703.91;10332233;28;841;-71
2023/10/02 19:30:06;;;;;;;;;;;;;;;20.49;59.86;99710.06;10332092;28;799;-71
2023/10/02 19:35:01;;;;;;;;;;;;;;;20.51;59.85;99712.59;10333902;28;1105;-70
2023/10/02 19:39:57;;;;;;;;;;;;;;;20.50;59.79;99719.69;10332241;28;1914;-71
2023/10/02 19:44:53;;;;;;;;;;;;;;;20.50;59.99;99713.53;10331611;28;954;-71
2023/10/02 19:49:49;;;;;;;;;;;;;;;20.49;59.76;99703.91;10331478;28;797;-71
2023/10/02 19:54:46;;;;;;;;;;;;;;;20.49;59.90;99702.09;10331185;28;928;-70
2023/10/02 19:59:42;;;;;;;;;;;;;;;20.49;59.71;99704.75;10330886;28;1957;-71
2023/10/02 20:04:38;;;;;;;;;;;;;;;20.50;59.77;99700.31;10331482;28;786;-71
2023/10/02 20:09:34;;;;;;;;;;;;;;;20.50;59.95;99705.59;10331194;28;823;-71
2023/10/02 20:14:30;;;;;;;;;;;;;;;20.50;59.89;99698.50;10331000;28;885;-70
2023/10/02 20:19:26;;;;;;;;;;;;;;;20.49;59.83;99699.47;10330082;28;1894;-70
2023/10/02 20:24:22;;;;;;;;;;;;;;;20.50;59.80;99695.84;10330912;28;854;-70
2023/10/02 20:29:18;;;;;;;;;;;;;;;20.50;59.84;99679.13;10329295;28;961;-71
2023/10/02 20:34:14;;;;;;;;;;;;;;;20.49;59.84;99678.28;10329116;28;1207;-71
2023/10/02 20:39:16;;;;;;;;;;;;;;;20.49;59.95;99674.78;10329690;28;1910;-71
2023/10/02 20:44:13;;;;;;;;;;;;;;;20.49;59.94;99672.97;10329862;28;872;-71
2023/10/02 20:49:09;;;;;;;;;;;;;;;20.50;59.77;99665.88;10329041;28;845;-71
2023/10/02 20:54:05;;;;;;;;;;;;;;;20.49;59.87;99650.94;10328341;28;830;-71
2023/10/02 20:59:01;;;;;;;;;;;;;;;20.49;59.95;99651.81;10328687;28;1948;-71
2023/10/02 21:03:57;;;;;;;;;;;;;;;20.50;59.76;99645.56;10328471;28;906;-71
2023/10/02 21:08:53;;;;;;;;;;;;;;;20.48;59.79;99642.13;10328303;28;1043;-71
2023/10/02 21:13:48;;;;;;;;;;;;;;;20.49;59.87;99638.56;10328131;28;945;-71
2023/10/02 21:18:45;;;;;;;;;;;;;;;20.48;59.81;99639.47;10327228;28;1951;-71
2023/10/02 21:23:41;;;;;;;;;;;;;;;20.50;59.95;99642.91;10326742;28;864;-71
2023/10/02 21:28:37;;;;;;;;;;;;;;;20.50;59.63;99631.47;10328087;28;897;-71
2023/10/02 21:33:33;;;;;;;;;;;;;;;20.50;59.73;99631.47;10328174;28;1101;-71
2023/10/02 21:38:29;;;;;;;;;;;;;;;20.49;59.75;99611.22;10327247;28;1965;-71
2023/10/02 21:43:25;;;;;;;;;;;;;;;20.49;59.83;99605.94;10326872;28;795;-71
2023/10/02 21:48:21;;;;;;;;;;;;;;;20.48;59.68;99590.97;10327291;28;909;-71
2023/10/02 21:53:17;;;;;;;;;;;;;;;20.48;59.91;99590.97;10326545;28;1059;-71
2023/10/02 21:58:12;;;;;;;;;;;;;;;20.48;59.71;99583.88;10326364;28;1955;-71
2023/10/02 22:03:09;;;;;;;;;;;;;;;20.49;59.83;99582.97;10326270;28;888;-71
2023/10/02 22:08:05;;;;;;;;;;;;;;;20.47;59.87;99579.53;10326071;28;896;-71
2023/10/02 22:13:01;;;;;;;;;;;;;;;20.49;59.82;99576.81;10325895;28;895;-71
2023/10/02 22:17:57;;;;;;;;;;;;;;;20.50;59.63;99573.22;10326311;28;1894;-71
2023/10/02 22:22:53;;;;;;;;;;;;;;;20.48;59.76;99565.34;10325725;28;918;-71
2023/10/02 22:27:49;;;;;;;;;;;;;;;20.48;59.73;99562.69;10326193;28;855;-72
2023/10/02 22:32:45;;;;;;;;;;;;;;;20.47;59.85;99553.06;10325324;28;1120;-71
2023/10/02 22:37:41;;;;;;;;;;;;;;;20.47;59.69;99541.63;10325748;28;1910;-71
2023/10/02 22:42:37;;;;;;;;;;;;;;;20.46;59.74;99535.47;10325328;28;803;-71
2023/10/02 22:47:33;;;;;;;;;;;;;;;20.47;59.89;99531.03;10325897;28;790;-71
2023/10/02 22:52:30;;;;;;;;;;;;;;;20.46;59.90;99503.72;10325192;28;873;-71
2023/10/02 22:57:26;;;;;;;;;;;;;;;20.46;59.93;99495.78;10324975;28;2004;-71
2023/10/02 23:02:22;;;;;;;;;;;;;;;20.47;59.78;99496.63;10325361;28;781;-71
2023/10/02 23:07:17;;;;;;;;;;;;;;;20.47;59.70;99483.38;10324883;28;830;-71
2023/10/02 23:12:13;;;;;;;;;;;;;;;20.47;59.92;99471.00;10325524;28;809;-71
2023/10/02 23:17:09;;;;;;;;;;;;;;;20.48;59.59;99470.03;10324525;28;1889;-71
2023/10/02 23:22:06;;;;;;;;;;;;;;;20.48;59.80;99462.09;10324590;28;860;-71
2023/10/02 23:27:02;;;;;;;;;;;;;;;20.48;59.63;99446.19;10324421;28;878;-71
2023/10/02 23:31:59;;;;;;;;;;;;;;;20.47;59.69;99439.22;10324776;28;1416;-71
2023/10/02 23:36:55;;;;;;;;;;;;;;;20.47;59.75;99431.28;10324743;28;1910;-71
2023/10/02 23:41:51;;;;;;;;;;;;;;;20.47;59.77;99415.38;10324748;28;964;-71
2023/10/02 23:46:47;;;;;;;;;;;;;;;20.47;59.64;99409.25;10325749;28;884;-71
2023/10/02 23:51:44;;;;;;;;;;;;;;;20.47;59.50;99393.38;10331917;28;790;-71
2023/10/02 23:56:42;;;;;;;;;;;;;;;20.46;59.68;99394.28;10331006;28;1886;-71
